Observation data for Snyder on 06/16/2019      Previous  Date  Next       Current Mesonet Observations  Soil Data  Daily Summary Page  Observations in Plain Language
KSYS 160500Z 01010KT 24/17 A2984 RMK A01 T02430170  RH  067%=      5-min Rain = 0
KSYS 160505Z 00006KT 24/17 A2984 RMK A01 T02390169  RH  068%=      5-min Rain = 0
KSYS 160510Z 07005KT 24/16 A2984 RMK A01 T02440161  RH  063%=      5-min Rain = 0
KSYS 160515Z 09003KT 25/16 A2983 RMK A01 T02530155  RH  057%=      5-min Rain = 0
KSYS 160520Z 15002KT 26/16 A2984 RMK A01 T02560155  RH  056%=      5-min Rain = 0
KSYS 160525Z 00006G13KT 25/16 A2984 RMK A01 T02460160  RH  062%=      5-min Rain = 0
KSYS 160530Z 01011KT 22/16 A2984 RMK A01 T02240162  RH  071%=      5-min Rain = 0
KSYS 160535Z 01010KT 21/16 A2984 RMK A01 T02140163  RH  076%=      5-min Rain = 0
KSYS 160540Z 01009KT 21/16 A2984 RMK A01 T02100164  RH  079%=      5-min Rain = 0
KSYS 160545Z 02009KT 21/17 A2985 RMK A01 T02080165  RH  080%=      5-min Rain = 0
KSYS 160550Z 01008KT 21/17 A2985 RMK A01 T02060166  RH  082%=      5-min Rain = 0
KSYS 160555Z 02007KT 21/17 A2985 RMK A01 T02050166  RH  082%=      5-min Rain = 0
KSYS 160600Z 02007KT 20/17 A2985 RMK A01 T02040166  RH  083%=      5-min Rain = 0
KSYS 160605Z 03007KT 20/17 A2985 RMK A01 T02030167  RH  084%=      5-min Rain = 0
KSYS 160610Z 04007KT 20/17 A2985 RMK A01 T02020168  RH  085%=      5-min Rain = 0
KSYS 160615Z 04008KT 20/17 A2985 RMK A01 T02010168  RH  085%=      5-min Rain = 0
KSYS 160620Z 06007KT 20/17 A2985 RMK A01 T02020169  RH  085%=      5-min Rain = 0
KSYS 160625Z 08006KT 20/17 A2984 RMK A01 T02020168  RH  085%=      5-min Rain = 0
KSYS 160630Z 08003KT 20/17 A2984 RMK A01 T02000168  RH  086%=      5-min Rain = 0
KSYS 160635Z 07003KT 20/17 A2984 RMK A01 T01990168  RH  087%=      5-min Rain = 0
KSYS 160640Z 31003KT 20/17 A2985 RMK A01 T02000168  RH  086%=      5-min Rain = 0
KSYS 160645Z 12003KT 20/17 A2985 RMK A01 T01980168  RH  087%=      5-min Rain = 0
KSYS 160650Z 11003KT 20/17 A2985 RMK A01 T01990167  RH  086%=      5-min Rain = 0
KSYS 160655Z 12004KT 20/17 A2985 RMK A01 T01970167  RH  087%=      5-min Rain = 0
KSYS 160700Z 11002KT 20/17 A2986 RMK A01 T01950167  RH  088%=      5-min Rain = 0
KSYS 160705Z 07004KT 20/17 A2986 RMK A01 T01950168  RH  089%=      5-min Rain = 0
KSYS 160710Z 08005KT 20/17 A2986 RMK A01 T01960169  RH  089%=      5-min Rain = 0
KSYS 160715Z 06005KT 20/17 A2986 RMK A01 T01980169  RH  087%=      5-min Rain = 0
KSYS 160720Z 35003KT 20/17 A2987 RMK A01 T01970167  RH  087%=      5-min Rain = 0
KSYS 160725Z 01004KT 19/17 A2987 RMK A01 T01940167  RH  088%=      5-min Rain = 0
KSYS 160730Z 04005KT 19/17 A2987 RMK A01 T01930168  RH  089%=      5-min Rain = 0
KSYS 160735Z 05007KT 20/17 A2988 RMK A01 T01970170  RH  089%=      5-min Rain = 0
KSYS 160740Z 04011G17KT 20/17 A2989 RMK A01 T02030169  RH  085%=      5-min Rain = 0
KSYS 160745Z 04013G22KT 21/17 A2989 RMK A01 T02060168  RH  083%=      5-min Rain = 0
KSYS 160750Z 10006G11KT 21/17 A2989 RMK A01 T02090165  RH  080%=      5-min Rain = 0
KSYS 160755Z 03012G21KT 21/17 A299 RMK A01 T02090165  RH  080%=      5-min Rain = 0
KSYS 160800Z 02015G20KT 21/16 A299 RMK A01 T02070161  RH  079%=      5-min Rain = 0
KSYS 160805Z 02013KT 20/16 A299 RMK A01 T02020160  RH  081%=      5-min Rain = 0
KSYS 160810Z 03010G16KT 20/16 A299 RMK A01 T01990160  RH  082%=      5-min Rain = 0
KSYS 160815Z 02011KT 20/16 A299 RMK A01 T01970159  RH  083%=      5-min Rain = 0
KSYS 160820Z 02011KT 20/16 A2989 RMK A01 T01960159  RH  083%=      5-min Rain = 0
KSYS 160825Z 02011KT 19/16 A2989 RMK A01 T01940159  RH  084%=      5-min Rain = 0
KSYS 160830Z 03010KT 20/16 A2989 RMK A01 T01950158  RH  083%=      5-min Rain = 0
KSYS 160835Z 04010KT 20/16 A2989 RMK A01 T01950157  RH  082%=      5-min Rain = 0
KSYS 160840Z 04009KT 20/16 A2989 RMK A01 T01950158  RH  083%=      5-min Rain = 0
KSYS 160845Z 03009KT 19/16 A2989 RMK A01 T01940158  RH  084%=      5-min Rain = 0
KSYS 160850Z 01009KT 19/16 A2988 RMK A01 T01920157  RH  084%=      5-min Rain = 0
KSYS 160855Z 03009KT 19/16 A2987 RMK A01 T01910157  RH  085%=      5-min Rain = 0
KSYS 160900Z 03009KT 19/16 A2988 RMK A01 T01920156  RH  083%=      5-min Rain = 0
KSYS 160905Z 02010KT 19/16 A2988 RMK A01 T01930156  RH  083%=      5-min Rain = 0
KSYS 160910Z 01010KT 19/16 A2988 RMK A01 T01920155  RH  083%=      5-min Rain = 0
KSYS 160915Z 02009KT 19/15 A2988 RMK A01 T01910154  RH  083%=      5-min Rain = 0
KSYS 160920Z 03009KT 19/15 A2987 RMK A01 T01920151  RH  080%=      5-min Rain = 0
KSYS 160925Z 03009KT 19/15 A2987 RMK A01 T01940149  RH  078%=      5-min Rain = 0
KSYS 160930Z 03010KT 20/15 A2988 RMK A01 T01950148  RH  077%=      5-min Rain = 0
KSYS 160935Z 03009KT 20/15 A2988 RMK A01 T01960146  RH  076%=      5-min Rain = 0
KSYS 160940Z 03010KT 20/15 A2988 RMK A01 T01970146  RH  076%=      5-min Rain = 0
KSYS 160945Z 04009KT 20/15 A2988 RMK A01 T01950147  RH  077%=      5-min Rain = 0
KSYS 160950Z 04009KT 20/15 A2987 RMK A01 T01950147  RH  077%=      5-min Rain = 0
KSYS 160955Z 05008KT 20/15 A2987 RMK A01 T01950146  RH  077%=      5-min Rain = 0
KSYS 161000Z 05009KT 19/15 A2987 RMK A01 T01940145  RH  076%=      5-min Rain = 0
KSYS 161005Z 05009KT 20/15 A2986 RMK A01 T01950145  RH  076%=      5-min Rain = 0
KSYS 161010Z 06009KT 19/15 A2987 RMK A01 T01940145  RH  076%=      5-min Rain = 0
KSYS 161015Z 06008KT 19/15 A2987 RMK A01 T01930145  RH  077%=      5-min Rain = 0
KSYS 161020Z 05008KT 19/14 A2987 RMK A01 T01930142  RH  076%=      5-min Rain = 0
KSYS 161025Z 05008KT 19/14 A2987 RMK A01 T01940142  RH  075%=      5-min Rain = 0
KSYS 161030Z 05009KT 19/14 A2987 RMK A01 T01940142  RH  075%=      5-min Rain = 0
KSYS 161035Z 05009KT 19/14 A2987 RMK A01 T01940142  RH  075%=      5-min Rain = 0
KSYS 161040Z 05010KT 19/14 A2987 RMK A01 T01940142  RH  075%=      5-min Rain = 0
KSYS 161045Z 06010KT 19/14 A2987 RMK A01 T01930142  RH  075%=      5-min Rain = 0
KSYS 161050Z 05010KT 19/14 A2987 RMK A01 T01920143  RH  076%=      5-min Rain = 0
KSYS 161055Z 05008KT 19/14 A2988 RMK A01 T01930142  RH  076%=      5-min Rain = 0
KSYS 161100Z 05008KT 19/14 A2988 RMK A01 T01920143  RH  076%=      5-min Rain = 0
KSYS 161105Z 05008KT 19/14 A2988 RMK A01 T01920143  RH  077%=      5-min Rain = 0
KSYS 161110Z 05009KT 19/14 A2988 RMK A01 T01920143  RH  077%=      5-min Rain = 0
KSYS 161115Z 04009KT 19/14 A2988 RMK A01 T01910144  RH  077%=      5-min Rain = 0
KSYS 161120Z 04008KT 19/14 A2988 RMK A01 T01900144  RH  078%=      5-min Rain = 0
KSYS 161125Z 05008KT 19/15 A2988 RMK A01 T01880145  RH  079%=      5-min Rain = 0
KSYS 161130Z 05008KT 19/15 A2988 RMK A01 T01870146  RH  081%=      5-min Rain = 0
KSYS 161135Z 06008KT 19/15 A2988 RMK A01 T01860146  RH  081%=      5-min Rain = 0
KSYS 161140Z 04009KT 19/15 A2988 RMK A01 T01860147  RH  082%=      5-min Rain = 0
KSYS 161145Z 04011KT 19/15 A2989 RMK A01 T01850148  RH  082%=      5-min Rain = 0
KSYS 161150Z 05009KT 19/15 A2989 RMK A01 T01850148  RH  083%=      5-min Rain = 0
KSYS 161155Z 05009KT 19/15 A2989 RMK A01 T01850149  RH  083%=      5-min Rain = 0
KSYS 161200Z 04007KT 19/15 A2989 RMK A01 T01860150  RH  084%=      5-min Rain = 0
KSYS 161205Z 03006KT 19/15 A2989 RMK A01 T01860151  RH  084%=      5-min Rain = 0
KSYS 161210Z 04004KT 19/15 A299 RMK A01 T01860152  RH  084%=      5-min Rain = 0
KSYS 161215Z 00004KT 19/15 A299 RMK A01 T01870152  RH  084%=      5-min Rain = 0
KSYS 161220Z 01004KT 19/15 A299 RMK A01 T01870153  RH  084%=      5-min Rain = 0
KSYS 161225Z 02005KT 19/15 A299 RMK A01 T01870154  RH  085%=      5-min Rain = 0
KSYS 161230Z 03003KT 19/16 A299 RMK A01 T01880155  RH  085%=      5-min Rain = 0
KSYS 161235Z 05004KT 19/16 A299 RMK A01 T01880155  RH  085%=      5-min Rain = 0
KSYS 161240Z 05005KT 19/16 A299 RMK A01 T01910157  RH  084%=      5-min Rain = 0
KSYS 161245Z 05006KT 20/16 A299 RMK A01 T01950158  RH  083%=      5-min Rain = 0
KSYS 161250Z 02007KT 20/16 A299 RMK A01 T01970159  RH  083%=      5-min Rain = 0
KSYS 161255Z 02007KT 20/16 A2991 RMK A01 T01990160  RH  082%=      5-min Rain = 0
KSYS 161300Z 02008KT 20/16 A2991 RMK A01 T02000160  RH  082%=      5-min Rain = 0
KSYS 161305Z 02008KT 20/16 A2991 RMK A01 T01970159  RH  083%=      5-min Rain = 0
KSYS 161310Z 03006KT 20/16 A2991 RMK A01 T01950160  RH  084%=      5-min Rain = 0
KSYS 161315Z 03007KT 20/16 A2991 RMK A01 T01950160  RH  084%=      5-min Rain = 0
KSYS 161320Z 03006KT 20/16 A2991 RMK A01 T01980162  RH  083%=      5-min Rain = 0
KSYS 161325Z 04006KT 20/16 A2991 RMK A01 T01990161  RH  083%=      5-min Rain = 0
KSYS 161330Z 03007KT 20/16 A2991 RMK A01 T01980161  RH  083%=      5-min Rain = 0
KSYS 161335Z 04007KT 20/16 A2991 RMK A01 T01990163  RH  083%=      5-min Rain = 0
KSYS 161340Z 04009KT 20/16 A2991 RMK A01 T01990163  RH  083%=      5-min Rain = 0
KSYS 161345Z 03008KT 20/16 A2991 RMK A01 T01980162  RH  084%=      5-min Rain = 0
KSYS 161350Z 04007KT 20/16 A2991 RMK A01 T01970163  RH  084%=      5-min Rain = 0
KSYS 161355Z 04005KT 20/16 A2992 RMK A01 T01970164  RH  085%=      5-min Rain = 0
KSYS 161400Z 05006KT 20/17 A2992 RMK A01 T01980165  RH  085%=      5-min Rain = 0
KSYS 161405Z 04007KT 20/17 A2992 RMK A01 T01990165  RH  085%=      5-min Rain = 0
KSYS 161410Z 05006KT 20/17 A2992 RMK A01 T01990166  RH  085%=      5-min Rain = 0
KSYS 161415Z 06005KT 21/17 A2991 RMK A01 T02050169  RH  084%=      5-min Rain = 0
KSYS 161420Z 06007KT 21/17 A2991 RMK A01 T02120170  RH  081%=      5-min Rain = 0
KSYS 161425Z 06007KT 22/17 A2991 RMK A01 T02170172  RH  079%=      5-min Rain = 0
KSYS 161430Z 06006KT 22/17 A2991 RMK A01 T02230174  RH  078%=      5-min Rain = 0
KSYS 161435Z 07007KT 23/18 A2991 RMK A01 T02270175  RH  076%=      5-min Rain = 0
KSYS 161440Z 08006KT 23/18 A2991 RMK A01 T02310176  RH  075%=      5-min Rain = 0
KSYS 161445Z 05007KT 23/18 A2992 RMK A01 T02340177  RH  074%=      5-min Rain = 0
KSYS 161450Z 04006KT 23/18 A2992 RMK A01 T02340178  RH  075%=      5-min Rain = 0
KSYS 161455Z 05007KT 24/18 A2992 RMK A01 T02370178  RH  073%=      5-min Rain = 0
KSYS 161500Z 04006KT 24/18 A2992 RMK A01 T02420180  RH  072%=      5-min Rain = 0
KSYS 161505Z 05006KT 24/18 A2992 RMK A01 T02420180  RH  072%=      5-min Rain = 0
KSYS 161510Z 09006KT 25/18 A2992 RMK A01 T02460180  RH  070%=      5-min Rain = 0
KSYS 161515Z 09006KT 25/18 A2992 RMK A01 T02490180  RH  069%=      5-min Rain = 0
KSYS 161520Z 09005KT 25/18 A2991 RMK A01 T02510181  RH  069%=      5-min Rain = 0
KSYS 161525Z 11005KT 26/18 A2992 RMK A01 T02550183  RH  068%=      5-min Rain = 0
KSYS 161530Z 12004KT 26/18 A2992 RMK A01 T02580181  RH  066%=      5-min Rain = 0
KSYS 161535Z 12004KT 26/18 A2992 RMK A01 T02580182  RH  066%=      5-min Rain = 0
KSYS 161540Z 10004KT 25/18 A2992 RMK A01 T02540182  RH  068%=      5-min Rain = 0
KSYS 161545Z 09004KT 25/18 A2992 RMK A01 T02510181  RH  069%=      5-min Rain = 0
KSYS 161550Z 11003KT 25/18 A2992 RMK A01 T02500183  RH  070%=      5-min Rain = 0
KSYS 161555Z 13003KT 26/18 A2992 RMK A01 T02550184  RH  068%=      5-min Rain = 0
KSYS 161600Z 14004KT 26/18 A2992 RMK A01 T02560183  RH  067%=      5-min Rain = 0
KSYS 161605Z 16005KT 26/19 A2992 RMK A01 T02590185  RH  067%=      5-min Rain = 0
KSYS 161610Z 13004KT 26/19 A2992 RMK A01 T02640186  RH  066%=      5-min Rain = 0
KSYS 161615Z 14005KT 27/19 A2992 RMK A01 T02700189  RH  065%=      5-min Rain = 0
KSYS 161620Z 16006KT 27/19 A2992 RMK A01 T02730185  RH  062%=      5-min Rain = 0
KSYS 161625Z 14005KT 27/19 A2992 RMK A01 T02700187  RH  064%=      5-min Rain = 0
KSYS 161630Z 13005KT 28/19 A2992 RMK A01 T02750188  RH  063%=      5-min Rain = 0
KSYS 161635Z 13005KT 28/19 A2992 RMK A01 T02790189  RH  061%=      5-min Rain = 0
KSYS 161640Z 13005KT 28/19 A2992 RMK A01 T02810188  RH  061%=      5-min Rain = 0
KSYS 161645Z 12005KT 29/19 A2992 RMK A01 T02850190  RH  059%=      5-min Rain = 0
KSYS 161650Z 12005KT 28/19 A2992 RMK A01 T02830186  RH  059%=      5-min Rain = 0
KSYS 161655Z 15005KT 28/19 A2992 RMK A01 T02830186  RH  059%=      5-min Rain = 0
KSYS 161700Z 13004KT 28/19 A2992 RMK A01 T02820187  RH  059%=      5-min Rain = 0
KSYS 161705Z 10003KT 28/19 A2992 RMK A01 T02830185  RH  059%=      5-min Rain = 0
KSYS 161710Z 09004KT 28/18 A2992 RMK A01 T02830182  RH  057%=      5-min Rain = 0
KSYS 161715Z 06003KT 28/18 A2992 RMK A01 T02820182  RH  058%=      5-min Rain = 0
KSYS 161720Z 04004KT 28/18 A2992 RMK A01 T02830184  RH  058%=      5-min Rain = 0
KSYS 161725Z 03005KT 28/19 A2992 RMK A01 T02810188  RH  060%=      5-min Rain = 0
KSYS 161730Z 03004KT 28/19 A2992 RMK A01 T02830190  RH  061%=      5-min Rain = 0
KSYS 161735Z 05005KT 29/19 A2992 RMK A01 T02880189  RH  058%=      5-min Rain = 0
KSYS 161740Z 04007G12KT 29/19 A2992 RMK A01 T02870193  RH  060%=      5-min Rain = 0
KSYS 161745Z 02006KT 29/19 A2991 RMK A01 T02870190  RH  059%=      5-min Rain = 0
KSYS 161750Z 03006KT 29/19 A2991 RMK A01 T02860192  RH  060%=      5-min Rain = 0
KSYS 161755Z 04007KT 29/19 A2991 RMK A01 T02860192  RH  060%=      5-min Rain = 0
KSYS 161800Z 02007KT 28/19 A2991 RMK A01 T02820191  RH  061%=      5-min Rain = 0
KSYS 161805Z 02008G18KT 28/19 A2991 RMK A01 T02810193  RH  062%=      5-min Rain = 0
KSYS 161810Z 02011G16KT 28/20 A2991 RMK A01 T02830196  RH  063%=      5-min Rain = 0
KSYS 161815Z 03010KT 28/20 A2991 RMK A01 T02830197  RH  063%=      5-min Rain = 0
KSYS 161820Z 01012G18KT 29/20 A2991 RMK A01 T02850198  RH  063%=      5-min Rain = 0
KSYS 161825Z 02011G17KT 29/20 A2991 RMK A01 T02850198  RH  063%=      5-min Rain = 0
KSYS 161830Z 02011G16KT 28/20 A2991 RMK A01 T02800197  RH  064%=      5-min Rain = 0
KSYS 161835Z 02010G17KT 28/20 A2991 RMK A01 T02800197  RH  064%=      5-min Rain = 0
KSYS 161840Z 01009G14KT 28/20 A2991 RMK A01 T02820198  RH  064%=      5-min Rain = 0
KSYS 161845Z 00010G17KT 28/20 A2991 RMK A01 T02840196  RH  062%=      5-min Rain = 0
KSYS 161850Z 01010G15KT 28/20 A299 RMK A01 T02820195  RH  063%=      5-min Rain = 0
KSYS 161855Z 01012G18KT 28/20 A299 RMK A01 T02820195  RH  063%=      5-min Rain = 0
KSYS 161900Z 01013G18KT 28/19 A299 RMK A01 T02770191  RH  063%=      5-min Rain = 0
KSYS 161905Z 00012KT 28/19 A299 RMK A01 T02770193  RH  064%=      5-min Rain = 0
KSYS 161910Z 01012G18KT 28/19 A299 RMK A01 T02800192  RH  062%=      5-min Rain = 0
KSYS 161915Z 36013KT 28/19 A2989 RMK A01 T02780190  RH  062%=      5-min Rain = 0
KSYS 161920Z 00011G16KT 28/19 A2989 RMK A01 T02770190  RH  063%=      5-min Rain = 0
KSYS 161925Z 01013G19KT 28/19 A2989 RMK A01 T02760188  RH  062%=      5-min Rain = 0
KSYS 161930Z 01012KT 28/19 A2989 RMK A01 T02760190  RH  063%=      5-min Rain = 0
KSYS 161935Z 01013G20KT 28/19 A2989 RMK A01 T02800188  RH  061%=      5-min Rain = 0
KSYS 161940Z 36012G18KT 28/19 A2989 RMK A01 T02790188  RH  061%=      5-min Rain = 0
KSYS 161945Z 01012G17KT 28/19 A2989 RMK A01 T02790187  RH  060%=      5-min Rain = 0
KSYS 161950Z 01012KT 28/18 A2989 RMK A01 T02750184  RH  061%=      5-min Rain = 0
KSYS 161955Z 00011KT 27/18 A2989 RMK A01 T02700184  RH  063%=      5-min Rain = 0
KSYS 162000Z 01011G17KT 27/19 A2989 RMK A01 T02730186  RH  062%=      5-min Rain = 0
KSYS 162005Z 01013G19KT 28/19 A2989 RMK A01 T02820186  RH  059%=      5-min Rain = 0
KSYS 162010Z 02011KT 28/18 A299 RMK A01 T02810184  RH  059%=      5-min Rain = 0
KSYS 162015Z 01011G17KT 28/18 A299 RMK A01 T02760184  RH  060%=      5-min Rain = 0
KSYS 162020Z 36012KT 27/18 A2989 RMK A01 T02720183  RH  062%=      5-min Rain = 0
KSYS 162025Z 01011KT 27/18 A299 RMK A01 T02690183  RH  062%=      5-min Rain = 0
KSYS 162030Z 03010KT 27/18 A299 RMK A01 T02700182  RH  062%=      5-min Rain = 0
KSYS 162035Z 02009G14KT 28/19 A2989 RMK A01 T02760185  RH  061%=      5-min Rain = 0
KSYS 162040Z 04010KT 28/18 A2989 RMK A01 T02810183  RH  058%=      5-min Rain = 0
KSYS 162045Z 03010KT 28/18 A2989 RMK A01 T02810184  RH  058%=      5-min Rain = 0
KSYS 162050Z 02009G14KT 29/19 A2989 RMK A01 T02850185  RH  058%=      5-min Rain = 0
KSYS 162055Z 03010KT 29/19 A2989 RMK A01 T02890185  RH  057%=      5-min Rain = 0
KSYS 162100Z 03010G16KT 29/19 A2989 RMK A01 T02890185  RH  056%=      5-min Rain = 0
KSYS 162105Z 03009G15KT 29/18 A2989 RMK A01 T02870183  RH  056%=      5-min Rain = 0
KSYS 162110Z 03008G13KT 29/19 A2989 RMK A01 T02910186  RH  056%=      5-min Rain = 0
KSYS 162115Z 04009G14KT 29/18 A2989 RMK A01 T02900183  RH  055%=      5-min Rain = 0
KSYS 162120Z 05008G13KT 29/18 A2989 RMK A01 T02890183  RH  056%=      5-min Rain = 0
KSYS 162125Z 04008G13KT 29/18 A2988 RMK A01 T02920184  RH  055%=      5-min Rain = 0
KSYS 162130Z 04007G13KT 29/18 A2988 RMK A01 T02940184  RH  055%=      5-min Rain = 0
KSYS 162135Z 04008KT 30/18 A2988 RMK A01 T02960184  RH  054%=      5-min Rain = 0
KSYS 162140Z 04007KT 30/18 A2988 RMK A01 T02960184  RH  054%=      5-min Rain = 0
KSYS 162145Z 03007KT 30/18 A2988 RMK A01 T02960183  RH  053%=      5-min Rain = 0
KSYS 162150Z 03009G14KT 30/18 A2987 RMK A01 T02960183  RH  053%=      5-min Rain = 0
KSYS 162155Z 03008G14KT 30/18 A2987 RMK A01 T02960183  RH  054%=      5-min Rain = 0
KSYS 162200Z 04008KT 30/18 A2987 RMK A01 T02970182  RH  053%=      5-min Rain = 0
KSYS 162205Z 03009G14KT 30/18 A2987 RMK A01 T02960182  RH  053%=      5-min Rain = 0
KSYS 162210Z 02008KT 29/18 A2987 RMK A01 T02940181  RH  053%=      5-min Rain = 0
KSYS 162215Z 03010G16KT 30/18 A2986 RMK A01 T02970181  RH  053%=      5-min Rain = 0
KSYS 162220Z 02008KT 30/18 A2986 RMK A01 T02960182  RH  053%=      5-min Rain = 0
KSYS 162225Z 03009KT 30/18 A2986 RMK A01 T02970181  RH  053%=      5-min Rain = 0
KSYS 162230Z 04009G14KT 29/18 A2986 RMK A01 T02930180  RH  054%=      5-min Rain = 0
KSYS 162235Z 04010G15KT 29/18 A2986 RMK A01 T02890179  RH  055%=      5-min Rain = 0
KSYS 162240Z 02010KT 29/18 A2986 RMK A01 T02910180  RH  054%=      5-min Rain = 0
KSYS 162245Z 04010G16KT 29/18 A2986 RMK A01 T02910179  RH  054%=      5-min Rain = 0
KSYS 162250Z 04009KT 29/18 A2986 RMK A01 T02920181  RH  054%=      5-min Rain = 0
KSYS 162255Z 04008KT 29/18 A2986 RMK A01 T02930183  RH  054%=      5-min Rain = 0
KSYS 162300Z 04010G16KT 29/18 A2986 RMK A01 T02930182  RH  054%=      5-min Rain = 0
KSYS 162305Z 04012G17KT 29/18 A2986 RMK A01 T02900180  RH  054%=      5-min Rain = 0
KSYS 162310Z 05009G14KT 29/18 A2986 RMK A01 T02870181  RH  056%=      5-min Rain = 0
KSYS 162315Z 04011G16KT 29/18 A2986 RMK A01 T02890183  RH  056%=      5-min Rain = 0
KSYS 162320Z 04011KT 29/18 A2987 RMK A01 T02860183  RH  056%=      5-min Rain = 0
KSYS 162325Z 03011G16KT 28/18 A2987 RMK A01 T02840183  RH  057%=      5-min Rain = 0
KSYS 162330Z 03010KT 28/18 A2987 RMK A01 T02840184  RH  058%=      5-min Rain = 0
KSYS 162335Z 04009G15KT 28/18 A2987 RMK A01 T02830184  RH  058%=      5-min Rain = 0
KSYS 162340Z 05009G15KT 29/18 A2987 RMK A01 T02850184  RH  058%=      5-min Rain = 0
KSYS 162345Z 04011G17KT 28/19 A2987 RMK A01 T02840185  RH  058%=      5-min Rain = 0
KSYS 162350Z 04011KT 28/19 A2987 RMK A01 T02820185  RH  059%=      5-min Rain = 0
KSYS 162355Z 05010KT 28/19 A2987 RMK A01 T02810185  RH  059%=      5-min Rain = 0
KSYS 170000Z 04010KT 28/19 A2987 RMK A01 T02800185  RH  059%=      5-min Rain = 0
KSYS 170005Z 04010KT 28/19 A2987 RMK A01 T02780186  RH  061%=      5-min Rain = 0
KSYS 170010Z 05010KT 28/19 A2987 RMK A01 T02770187  RH  061%=      5-min Rain = 0
KSYS 170015Z 06010KT 28/19 A2987 RMK A01 T02760186  RH  061%=      5-min Rain = 0
KSYS 170020Z 06009KT 28/19 A2987 RMK A01 T02750187  RH  062%=      5-min Rain = 0
KSYS 170025Z 05011KT 27/19 A2987 RMK A01 T02730186  RH  062%=      5-min Rain = 0
KSYS 170030Z 05009KT 27/19 A2987 RMK A01 T02710186  RH  063%=      5-min Rain = 0
KSYS 170035Z 06011KT 27/19 A2987 RMK A01 T02710186  RH  063%=      5-min Rain = 0
KSYS 170040Z 06010KT 27/19 A2988 RMK A01 T02720186  RH  063%=      5-min Rain = 0
KSYS 170045Z 06009KT 27/19 A2988 RMK A01 T02710186  RH  063%=      5-min Rain = 0
KSYS 170050Z 05009KT 27/19 A2988 RMK A01 T02700186  RH  064%=      5-min Rain = 0
KSYS 170055Z 05007KT 27/19 A2987 RMK A01 T02700187  RH  064%=      5-min Rain = 0
KSYS 170100Z 05009KT 27/19 A2987 RMK A01 T02680186  RH  064%=      5-min Rain = 0
KSYS 170105Z 05009KT 27/19 A2988 RMK A01 T02660185  RH  064%=      5-min Rain = 0
KSYS 170110Z 04008KT 27/18 A2988 RMK A01 T02650184  RH  065%=      5-min Rain = 0
KSYS 170115Z 04008KT 26/18 A2988 RMK A01 T02630184  RH  065%=      5-min Rain = 0
KSYS 170120Z 05010KT 26/18 A2988 RMK A01 T02620183  RH  065%=      5-min Rain = 0
KSYS 170125Z 05009KT 26/18 A2988 RMK A01 T02610183  RH  065%=      5-min Rain = 0
KSYS 170130Z 05008KT 26/18 A2988 RMK A01 T02600182  RH  065%=      5-min Rain = 0
KSYS 170135Z 04009KT 26/18 A2988 RMK A01 T02590180  RH  065%=      5-min Rain = 0
KSYS 170140Z 04008KT 26/18 A2988 RMK A01 T02570180  RH  066%=      5-min Rain = 0
KSYS 170145Z 03010KT 26/18 A2988 RMK A01 T02550180  RH  067%=      5-min Rain = 0
KSYS 170150Z 04008KT 25/18 A2989 RMK A01 T02530180  RH  067%=      5-min Rain = 0
KSYS 170155Z 04007KT 25/18 A2989 RMK A01 T02510180  RH  068%=      5-min Rain = 0
KSYS 170200Z 04007KT 25/18 A2989 RMK A01 T02490181  RH  069%=      5-min Rain = 0
KSYS 170205Z 05006KT 25/18 A299 RMK A01 T02480181  RH  070%=      5-min Rain = 0
KSYS 170210Z 05008KT 25/18 A299 RMK A01 T02470181  RH  070%=      5-min Rain = 0
KSYS 170215Z 05008KT 25/18 A299 RMK A01 T02460180  RH  070%=      5-min Rain = 0
KSYS 170220Z 05007KT 25/18 A2989 RMK A01 T02450180  RH  071%=      5-min Rain = 0
KSYS 170225Z 05007KT 24/18 A299 RMK A01 T02430180  RH  071%=      5-min Rain = 0
KSYS 170230Z 05008KT 24/18 A299 RMK A01 T02420180  RH  072%=      5-min Rain = 0
KSYS 170235Z 05008KT 24/18 A299 RMK A01 T02410180  RH  072%=      5-min Rain = 0
KSYS 170240Z 05007KT 24/18 A299 RMK A01 T02410180  RH  072%=      5-min Rain = 0
KSYS 170245Z 05007KT 24/18 A299 RMK A01 T02400180  RH  073%=      5-min Rain = 0
KSYS 170250Z 05008KT 24/18 A299 RMK A01 T02390180  RH  073%=      5-min Rain = 0
KSYS 170255Z 05008KT 24/18 A2991 RMK A01 T02380180  RH  073%=      5-min Rain = 0
KSYS 170300Z 05008KT 24/18 A2991 RMK A01 T02380179  RH  073%=      5-min Rain = 0
KSYS 170305Z 04009KT 24/18 A2991 RMK A01 T02370178  RH  073%=      5-min Rain = 0
KSYS 170310Z 04010KT 24/18 A2991 RMK A01 T02370178  RH  073%=      5-min Rain = 0
KSYS 170315Z 05009KT 24/18 A2991 RMK A01 T02360177  RH  073%=      5-min Rain = 0
KSYS 170320Z 04009KT 24/18 A2991 RMK A01 T02350176  RH  073%=      5-min Rain = 0
KSYS 170325Z 04009KT 24/18 A2991 RMK A01 T02350175  RH  073%=      5-min Rain = 0
KSYS 170330Z 05009G14KT 23/18 A2992 RMK A01 T02340175  RH  073%=      5-min Rain = 0
KSYS 170335Z 05009KT 23/17 A2992 RMK A01 T02330174  RH  073%=      5-min Rain = 0
KSYS 170340Z 05009KT 23/17 A2992 RMK A01 T02320173  RH  073%=      5-min Rain = 0
KSYS 170345Z 05010KT 23/17 A2992 RMK A01 T02310173  RH  073%=      5-min Rain = 0
KSYS 170350Z 06010G15KT 23/17 A2993 RMK A01 T02310171  RH  073%=      5-min Rain = 0
KSYS 170355Z 06009KT 23/17 A2993 RMK A01 T02310170  RH  072%=      5-min Rain = 0
KSYS 170400Z 06010KT 23/17 A2994 RMK A01 T02300170  RH  073%=      5-min Rain = 0
KSYS 170405Z 06010G15KT 23/17 A2994 RMK A01 T02290171  RH  073%=      5-min Rain = 0
KSYS 170410Z 06010KT 23/17 A2994 RMK A01 T02290171  RH  073%=      5-min Rain = 0
KSYS 170415Z 06010KT 23/17 A2995 RMK A01 T02280171  RH  074%=      5-min Rain = 0
KSYS 170420Z 06009KT 23/17 A2995 RMK A01 T02260171  RH  075%=      5-min Rain = 0
KSYS 170425Z 06009KT 23/17 A2995 RMK A01 T02250172  RH  076%=      5-min Rain = 0
KSYS 170430Z 07009KT 22/17 A2995 RMK A01 T02240172  RH  076%=      5-min Rain = 0
KSYS 170435Z 07008KT 22/17 A2996 RMK A01 T02230172  RH  077%=      5-min Rain = 0
KSYS 170440Z 06008KT 22/17 A2996 RMK A01 T02220172  RH  077%=      5-min Rain = 0
KSYS 170445Z 07008KT 22/17 A2996 RMK A01 T02210172  RH  078%=      5-min Rain = 0
KSYS 170450Z 06008KT 22/17 A2996 RMK A01 T02200172  RH  078%=      5-min Rain = 0
KSYS 170455Z 06008G13KT 22/17 A2995 RMK A01 T02200172  RH  078%=      5-min Rain = 0

Page generated in 0.0091 seconds.